sensor_id;sensor_type;location;lat;lon;timestamp;temperature;humidity
47600;DHT22;33323;52.124;6.018;2022-11-28T00:08:17;6.70;99.90
47600;DHT22;33323;52.124;6.018;2022-11-28T04:41:06;7.50;99.90
47600;DHT22;33323;52.124;6.018;2022-11-28T06:06:38;7.50;99.90
47600;DHT22;33323;52.124;6.018;2022-11-28T06:12:21;7.50;99.90
47600;DHT22;33323;52.124;6.018;2022-11-28T06:14:48;7.60;99.90
47600;DHT22;33323;52.124;6.018;2022-11-28T06:17:14;7.60;99.90
47600;DHT22;33323;52.124;6.018;2022-11-28T06:42:21;7.60;99.90
47600;DHT22;33323;52.124;6.018;2022-11-28T06:48:13;7.60;99.90
47600;DHT22;33323;52.124;6.018;2022-11-28T06:51:29;7.60;99.90
47600;DHT22;33323;52.124;6.018;2022-11-28T07:37:00;7.70;99.90
47600;DHT22;33323;52.124;6.018;2022-11-28T07:39:29;7.80;99.90
47600;DHT22;33323;52.124;6.018;2022-11-28T07:41:56;7.70;99.90
47600;DHT22;33323;52.124;6.018;2022-11-28T07:44:23;7.80;99.90
47600;DHT22;33323;52.124;6.018;2022-11-28T07:49:57;7.80;99.90
47600;DHT22;33323;52.124;6.018;2022-11-28T07:52:24;7.80;99.90
47600;DHT22;33323;52.124;6.018;2022-11-28T07:54:51;7.80;99.90
47600;DHT22;33323;52.124;6.018;2022-11-28T07:57:18;7.80;99.90
47600;DHT22;33323;52.124;6.018;2022-11-28T07:59:45;7.80;99.90
47600;DHT22;33323;52.124;6.018;2022-11-28T08:02:12;7.80;99.90
47600;DHT22;33323;52.124;6.018;2022-11-28T08:04:39;7.80;99.90
47600;DHT22;33323;52.124;6.018;2022-11-28T08:07:15;7.80;99.90
47600;DHT22;33323;52.124;6.018;2022-11-28T08:09:42;7.80;99.90
47600;DHT22;33323;52.124;6.018;2022-11-28T08:12:11;7.70;99.90
47600;DHT22;33323;52.124;6.018;2022-11-28T08:14:40;7.80;99.90
47600;DHT22;33323;52.124;6.018;2022-11-28T08:17:08;7.80;99.90
47600;DHT22;33323;52.124;6.018;2022-11-28T08:19:35;7.80;99.90
47600;DHT22;33323;52.124;6.018;2022-11-28T08:22:02;7.80;99.90
47600;DHT22;33323;52.124;6.018;2022-11-28T08:24:29;7.80;99.90
47600;DHT22;33323;52.124;6.018;2022-11-28T08:26:56;7.80;99.90
47600;DHT22;33323;52.124;6.018;2022-11-28T08:29:23;7.80;99.90
47600;DHT22;33323;52.124;6.018;2022-11-28T08:31:50;7.80;99.90
47600;DHT22;33323;52.124;6.018;2022-11-28T08:37:56;7.80;99.90
47600;DHT22;33323;52.124;6.018;2022-11-28T08:43:58;7.90;99.90
47600;DHT22;33323;52.124;6.018;2022-11-28T08:46:25;7.90;99.90
47600;DHT22;33323;52.124;6.018;2022-11-28T08:48:52;7.90;99.90
47600;DHT22;33323;52.124;6.018;2022-11-28T08:51:21;7.90;99.90
47600;DHT22;33323;52.124;6.018;2022-11-28T08:53:51;8.00;99.90
47600;DHT22;33323;52.124;6.018;2022-11-28T08:56:25;8.00;99.90
47600;DHT22;33323;52.124;6.018;2022-11-28T08:58:52;8.00;99.90
47600;DHT22;33323;52.124;6.018;2022-11-28T09:01:22;8.00;99.90
47600;DHT22;33323;52.124;6.018;2022-11-28T09:03:51;8.00;99.90
47600;DHT22;33323;52.124;6.018;2022-11-28T09:06:19;8.00;99.90
47600;DHT22;33323;52.124;6.018;2022-11-28T09:08:48;8.10;99.90
47600;DHT22;33323;52.124;6.018;2022-11-28T09:11:17;8.00;99.90
47600;DHT22;33323;52.124;6.018;2022-11-28T09:13:46;8.00;99.90
47600;DHT22;33323;52.124;6.018;2022-11-28T09:18:42;8.10;99.90
47600;DHT22;33323;52.124;6.018;2022-11-28T09:21:11;8.10;99.90
47600;DHT22;33323;52.124;6.018;2022-11-28T09:23:41;8.10;99.90
47600;DHT22;33323;52.124;6.018;2022-11-28T09:26:14;8.00;99.90
47600;DHT22;33323;52.124;6.018;2022-11-28T09:28:43;8.00;99.90
47600;DHT22;33323;52.124;6.018;2022-11-28T09:31:12;8.10;99.90
47600;DHT22;33323;52.124;6.018;2022-11-28T09:33:40;8.10;99.90
47600;DHT22;33323;52.124;6.018;2022-11-28T09:36:10;8.10;99.90
47600;DHT22;33323;52.124;6.018;2022-11-28T09:38:47;8.20;99.90
47600;DHT22;33323;52.124;6.018;2022-11-28T09:46:49;8.20;99.90
47600;DHT22;33323;52.124;6.018;2022-11-28T09:49:33;8.30;99.90
47600;DHT22;33323;52.124;6.018;2022-11-28T09:57:53;8.30;99.90
47600;DHT22;33323;52.124;6.018;2022-11-28T10:00:22;8.30;99.90
47600;DHT22;33323;52.124;6.018;2022-11-28T10:03:08;8.30;99.90
47600;DHT22;33323;52.124;6.018;2022-11-28T10:26:01;8.50;99.90
47600;DHT22;33323;52.124;6.018;2022-11-28T10:28:34;8.40;99.90
47600;DHT22;33323;52.124;6.018;2022-11-28T10:31:12;8.50;99.90
47600;DHT22;33323;52.124;6.018;2022-11-28T10:36:29;8.50;99.90
47600;DHT22;33323;52.124;6.018;2022-11-28T10:39:04;8.50;99.90
47600;DHT22;33323;52.124;6.018;2022-11-28T10:41:44;8.60;99.90
47600;DHT22;33323;52.124;6.018;2022-11-28T10:47:54;8.60;99.90
47600;DHT22;33323;52.124;6.018;2022-11-28T10:53:46;8.60;99.90
47600;DHT22;33323;52.124;6.018;2022-11-28T10:56:48;8.70;99.90
47600;DHT22;33323;52.124;6.018;2022-11-28T11:02:51;8.70;99.90
47600;DHT22;33323;52.124;6.018;2022-11-28T11:05:25;8.70;99.90
47600;DHT22;33323;52.124;6.018;2022-11-28T11:07:57;8.70;99.90
47600;DHT22;33323;52.124;6.018;2022-11-28T11:10:35;8.80;99.90
47600;DHT22;33323;52.124;6.018;2022-11-28T11:13:16;8.80;99.90
47600;DHT22;33323;52.124;6.018;2022-11-28T11:18:33;8.70;99.90
47600;DHT22;33323;52.124;6.018;2022-11-28T11:21:24;8.70;99.90
47600;DHT22;33323;52.124;6.018;2022-11-28T11:24:14;8.80;99.90
47600;DHT22;33323;52.124;6.018;2022-11-28T11:26:47;8.80;99.90
47600;DHT22;33323;52.124;6.018;2022-11-28T11:29:21;8.70;99.90
47600;DHT22;33323;52.124;6.018;2022-11-28T11:32:24;8.70;99.90
47600;DHT22;33323;52.124;6.018;2022-11-28T11:34:56;8.60;99.90
47600;DHT22;33323;52.124;6.018;2022-11-28T11:37:33;8.60;99.90
47600;DHT22;33323;52.124;6.018;2022-11-28T11:40:09;8.70;99.90
47600;DHT22;33323;52.124;6.018;2022-11-28T11:42:55;8.60;99.90
47600;DHT22;33323;52.124;6.018;2022-11-28T11:45:33;8.70;99.90
47600;DHT22;33323;52.124;6.018;2022-11-28T11:48:02;8.70;99.90
47600;DHT22;33323;52.124;6.018;2022-11-28T11:50:31;8.70;99.90
47600;DHT22;33323;52.124;6.018;2022-11-28T11:53:11;8.60;99.90
47600;DHT22;33323;52.124;6.018;2022-11-28T11:55:50;8.70;99.90
47600;DHT22;33323;52.124;6.018;2022-11-28T11:58:25;8.60;99.90
47600;DHT22;33323;52.124;6.018;2022-11-28T12:00:58;8.60;99.90
47600;DHT22;33323;52.124;6.018;2022-11-28T12:06:51;8.60;99.90
47600;DHT22;33323;52.124;6.018;2022-11-28T12:09:33;8.60;99.90
47600;DHT22;33323;52.124;6.018;2022-11-28T12:12:21;8.60;99.90
47600;DHT22;33323;52.124;6.018;2022-11-28T12:14:50;8.60;99.90
47600;DHT22;33323;52.124;6.018;2022-11-28T12:20:36;8.60;99.90
47600;DHT22;33323;52.124;6.018;2022-11-28T12:23:30;8.60;99.90
47600;DHT22;33323;52.124;6.018;2022-11-28T12:26:22;8.60;99.90
47600;DHT22;33323;52.124;6.018;2022-11-28T12:40:59;8.80;99.90
47600;DHT22;33323;52.124;6.018;2022-11-28T12:44:10;8.80;99.90
47600;DHT22;33323;52.124;6.018;2022-11-28T12:58:56;8.80;99.90
47600;DHT22;33323;52.124;6.018;2022-11-28T13:13:51;8.90;99.90
47600;DHT22;33323;52.124;6.018;2022-11-28T13:26:12;9.00;99.90
47600;DHT22;33323;52.124;6.018;2022-11-28T13:28:53;8.90;99.90
47600;DHT22;33323;52.124;6.018;2022-11-28T13:34:14;9.00;99.90
47600;DHT22;33323;52.124;6.018;2022-11-28T13:42:47;9.20;99.90
47600;DHT22;33323;52.124;6.018;2022-11-28T13:45:39;9.20;99.90
47600;DHT22;33323;52.124;6.018;2022-11-28T13:51:21;9.20;99.90
47600;DHT22;33323;52.124;6.018;2022-11-28T13:56:59;9.10;99.90
47600;DHT22;33323;52.124;6.018;2022-11-28T13:59:28;9.10;99.90
47600;DHT22;33323;52.124;6.018;2022-11-28T14:02:00;9.10;99.90
47600;DHT22;33323;52.124;6.018;2022-11-28T14:04:30;9.20;99.90
47600;DHT22;33323;52.124;6.018;2022-11-28T14:07:04;9.20;99.90
47600;DHT22;33323;52.124;6.018;2022-11-28T14:21:52;9.10;99.90
47600;DHT22;33323;52.124;6.018;2022-11-28T14:24:56;9.10;99.90
47600;DHT22;33323;52.124;6.018;2022-11-28T14:27:29;9.10;99.90
47600;DHT22;33323;52.124;6.018;2022-11-28T14:29:59;9.10;99.90
47600;DHT22;33323;52.124;6.018;2022-11-28T14:32:37;9.10;99.90
47600;DHT22;33323;52.124;6.018;2022-11-28T14:35:15;9.10;99.90
47600;DHT22;33323;52.124;6.018;2022-11-28T14:41:04;9.10;99.90
47600;DHT22;33323;52.124;6.018;2022-11-28T14:56:47;9.10;99.90
47600;DHT22;33323;52.124;6.018;2022-11-28T14:59:33;9.10;99.90
47600;DHT22;33323;52.124;6.018;2022-11-28T15:04:56;9.10;99.90
47600;DHT22;33323;52.124;6.018;2022-11-28T15:07:59;9.10;99.90
47600;DHT22;33323;52.124;6.018;2022-11-28T15:14:08;9.10;99.90
47600;DHT22;33323;52.124;6.018;2022-11-28T15:16:42;9.20;99.90
47600;DHT22;33323;52.124;6.018;2022-11-28T15:19:31;9.20;99.90
47600;DHT22;33323;52.124;6.018;2022-11-28T15:22:00;9.10;99.90
47600;DHT22;33323;52.124;6.018;2022-11-28T15:24:35;9.10;99.90
47600;DHT22;33323;52.124;6.018;2022-11-28T15:29:34;9.20;99.90
47600;DHT22;33323;52.124;6.018;2022-11-28T15:32:02;9.20;99.90
47600;DHT22;33323;52.124;6.018;2022-11-28T15:37:05;9.10;99.90
47600;DHT22;33323;52.124;6.018;2022-11-28T15:39:36;9.20;99.90
47600;DHT22;33323;52.124;6.018;2022-11-28T15:42:17;9.20;99.90
47600;DHT22;33323;52.124;6.018;2022-11-28T15:44:45;9.30;99.90
47600;DHT22;33323;52.124;6.018;2022-11-28T15:47:19;9.20;99.90
47600;DHT22;33323;52.124;6.018;2022-11-28T15:49:58;9.20;99.90
47600;DHT22;33323;52.124;6.018;2022-11-28T15:52:56;9.10;99.90
47600;DHT22;33323;52.124;6.018;2022-11-28T15:55:28;9.00;99.90
47600;DHT22;33323;52.124;6.018;2022-11-28T16:00:46;9.20;99.90
47600;DHT22;33323;52.124;6.018;2022-11-28T16:03:21;9.20;99.90
47600;DHT22;33323;52.124;6.018;2022-11-28T16:05:52;9.20;99.90
47600;DHT22;33323;52.124;6.018;2022-11-28T16:08:36;9.20;99.90
47600;DHT22;33323;52.124;6.018;2022-11-28T16:11:07;9.10;99.90
47600;DHT22;33323;52.124;6.018;2022-11-28T16:13:39;9.10;99.90
47600;DHT22;33323;52.124;6.018;2022-11-28T16:16:30;9.20;99.90
47600;DHT22;33323;52.124;6.018;2022-11-28T16:19:06;9.20;99.90
47600;DHT22;33323;52.124;6.018;2022-11-28T16:22:07;9.10;99.90
47600;DHT22;33323;52.124;6.018;2022-11-28T16:24:52;9.00;99.90
47600;DHT22;33323;52.124;6.018;2022-11-28T16:27:39;8.90;99.90
47600;DHT22;33323;52.124;6.018;2022-11-28T16:32:54;9.90;99.90
47600;DHT22;33323;52.124;6.018;2022-11-28T16:35:34;10.00;99.90
47600;DHT22;33323;52.124;6.018;2022-11-28T16:38:15;10.00;99.90
47600;DHT22;33323;52.124;6.018;2022-11-28T16:40:47;10.50;99.90
47600;DHT22;33323;52.124;6.018;2022-11-28T16:43:23;10.50;99.90
47600;DHT22;33323;52.124;6.018;2022-11-28T16:46:02;10.40;99.90
47600;DHT22;33323;52.124;6.018;2022-11-28T16:48:37;10.30;99.90
47600;DHT22;33323;52.124;6.018;2022-11-28T16:51:26;10.20;99.90
47600;DHT22;33323;52.124;6.018;2022-11-28T16:53:55;9.90;99.90
47600;DHT22;33323;52.124;6.018;2022-11-28T17:01:42;10.10;99.90
47600;DHT22;33323;52.124;6.018;2022-11-28T17:04:28;10.00;99.90
47600;DHT22;33323;52.124;6.018;2022-11-28T17:06:58;10.10;99.90
47600;DHT22;33323;52.124;6.018;2022-11-28T17:09:30;10.10;99.90
47600;DHT22;33323;52.124;6.018;2022-11-28T17:12:04;10.00;99.90
47600;DHT22;33323;52.124;6.018;2022-11-28T17:14:33;10.20;99.90
47600;DHT22;33323;52.124;6.018;2022-11-28T17:17:00;10.20;99.90
47600;DHT22;33323;52.124;6.018;2022-11-28T17:19:27;10.10;99.90
47600;DHT22;33323;52.124;6.018;2022-11-28T17:21:57;9.90;99.90
47600;DHT22;33323;52.124;6.018;2022-11-28T17:24:28;9.80;99.90
47600;DHT22;33323;52.124;6.018;2022-11-28T17:26:58;9.80;99.90
47600;DHT22;33323;52.124;6.018;2022-11-28T17:29:25;9.80;99.90
47600;DHT22;33323;52.124;6.018;2022-11-28T17:31:53;9.70;99.90
47600;DHT22;33323;52.124;6.018;2022-11-28T17:34:28;9.70;99.90
47600;DHT22;33323;52.124;6.018;2022-11-28T17:37:00;9.60;99.90
47600;DHT22;33323;52.124;6.018;2022-11-28T17:39:28;9.50;99.90
47600;DHT22;33323;52.124;6.018;2022-11-28T17:41:57;9.90;99.90
47600;DHT22;33323;52.124;6.018;2022-11-28T17:44:30;10.10;99.90
47600;DHT22;33323;52.124;6.018;2022-11-28T17:46:59;10.40;99.90
47600;DHT22;33323;52.124;6.018;2022-11-28T17:49:28;10.60;99.90
47600;DHT22;33323;52.124;6.018;2022-11-28T17:51:57;10.60;99.90
47600;DHT22;33323;52.124;6.018;2022-11-28T17:54:25;10.70;99.90
47600;DHT22;33323;52.124;6.018;2022-11-28T17:56:53;10.60;99.90
47600;DHT22;33323;52.124;6.018;2022-11-28T17:59:22;10.40;99.90
47600;DHT22;33323;52.124;6.018;2022-11-28T18:01:50;10.30;99.90
47600;DHT22;33323;52.124;6.018;2022-11-28T18:04:22;10.20;99.90
47600;DHT22;33323;52.124;6.018;2022-11-28T18:06:49;10.10;99.90
47600;DHT22;33323;52.124;6.018;2022-11-28T18:09:16;10.00;99.90
47600;DHT22;33323;52.124;6.018;2022-11-28T18:11:44;9.80;99.90
47600;DHT22;33323;52.124;6.018;2022-11-28T18:14:12;9.70;99.90
47600;DHT22;33323;52.124;6.018;2022-11-28T18:16:40;10.00;99.90
47600;DHT22;33323;52.124;6.018;2022-11-28T18:19:10;10.10;99.90
47600;DHT22;33323;52.124;6.018;2022-11-28T18:21:37;10.10;99.90
47600;DHT22;33323;52.124;6.018;2022-11-28T18:24:05;10.10;99.90
47600;DHT22;33323;52.124;6.018;2022-11-28T18:26:32;10.00;99.90
47600;DHT22;33323;52.124;6.018;2022-11-28T18:29:00;9.80;99.90
47600;DHT22;33323;52.124;6.018;2022-11-28T18:31:28;9.80;99.90
47600;DHT22;33323;52.124;6.018;2022-11-28T18:34:00;9.70;99.90
47600;DHT22;33323;52.124;6.018;2022-11-28T18:36:35;9.70;99.90
47600;DHT22;33323;52.124;6.018;2022-11-28T18:39:06;9.70;99.90
47600;DHT22;33323;52.124;6.018;2022-11-28T18:41:35;9.70;99.90
47600;DHT22;33323;52.124;6.018;2022-11-28T18:44:03;9.70;99.90
47600;DHT22;33323;52.124;6.018;2022-11-28T18:46:32;9.60;99.90
47600;DHT22;33323;52.124;6.018;2022-11-28T18:49:00;9.50;99.90
47600;DHT22;33323;52.124;6.018;2022-11-28T18:51:36;9.50;99.90
47600;DHT22;33323;52.124;6.018;2022-11-28T18:54:04;9.40;99.90
47600;DHT22;33323;52.124;6.018;2022-11-28T18:56:33;9.50;99.90
47600;DHT22;33323;52.124;6.018;2022-11-28T18:59:01;9.50;99.90
47600;DHT22;33323;52.124;6.018;2022-11-28T19:01:30;9.50;99.90
47600;DHT22;33323;52.124;6.018;2022-11-28T19:04:05;9.50;99.90
47600;DHT22;33323;52.124;6.018;2022-11-28T19:06:35;9.40;99.90
47600;DHT22;33323;52.124;6.018;2022-11-28T19:09:06;9.30;99.90
47600;DHT22;33323;52.124;6.018;2022-11-28T19:11:35;9.20;99.90
47600;DHT22;33323;52.124;6.018;2022-11-28T19:14:02;9.10;99.90
47600;DHT22;33323;52.124;6.018;2022-11-28T19:16:34;9.10;99.90
47600;DHT22;33323;52.124;6.018;2022-11-28T19:19:04;9.10;99.90
47600;DHT22;33323;52.124;6.018;2022-11-28T19:21:34;9.10;99.90
47600;DHT22;33323;52.124;6.018;2022-11-28T19:24:03;9.00;99.90
47600;DHT22;33323;52.124;6.018;2022-11-28T19:26:31;9.00;99.90
47600;DHT22;33323;52.124;6.018;2022-11-28T19:29:01;9.00;99.90
47600;DHT22;33323;52.124;6.018;2022-11-28T19:31:31;8.90;99.90
47600;DHT22;33323;52.124;6.018;2022-11-28T19:34:13;8.80;99.90
47600;DHT22;33323;52.124;6.018;2022-11-28T19:36:52;8.80;99.90
47600;DHT22;33323;52.124;6.018;2022-11-28T19:39:22;8.80;99.90
47600;DHT22;33323;52.124;6.018;2022-11-28T19:41:51;8.80;99.90
47600;DHT22;33323;52.124;6.018;2022-11-28T19:44:19;8.70;99.90
47600;DHT22;33323;52.124;6.018;2022-11-28T19:46:50;8.70;99.90
47600;DHT22;33323;52.124;6.018;2022-11-28T19:49:22;8.60;99.90
47600;DHT22;33323;52.124;6.018;2022-11-28T19:51:50;8.50;99.90
47600;DHT22;33323;52.124;6.018;2022-11-28T19:54:19;8.40;99.90
47600;DHT22;33323;52.124;6.018;2022-11-28T19:56:47;8.40;99.90
47600;DHT22;33323;52.124;6.018;2022-11-28T19:59:15;8.30;99.90
47600;DHT22;33323;52.124;6.018;2022-11-28T20:01:43;8.20;99.90
47600;DHT22;33323;52.124;6.018;2022-11-28T20:04:11;8.30;99.90
47600;DHT22;33323;52.124;6.018;2022-11-28T20:06:38;8.30;99.90
47600;DHT22;33323;52.124;6.018;2022-11-28T20:09:10;8.10;99.90
47600;DHT22;33323;52.124;6.018;2022-11-28T20:11:41;8.10;99.90
47600;DHT22;33323;52.124;6.018;2022-11-28T20:14:13;8.20;99.90
47600;DHT22;33323;52.124;6.018;2022-11-28T20:16:42;8.10;99.90
47600;DHT22;33323;52.124;6.018;2022-11-28T20:19:10;8.10;99.90
47600;DHT22;33323;52.124;6.018;2022-11-28T20:21:38;8.00;99.90
47600;DHT22;33323;52.124;6.018;2022-11-28T20:24:08;8.10;99.90
47600;DHT22;33323;52.124;6.018;2022-11-28T20:26:41;8.10;99.90
47600;DHT22;33323;52.124;6.018;2022-11-28T20:29:12;8.20;99.90
47600;DHT22;33323;52.124;6.018;2022-11-28T20:31:41;8.10;99.90
47600;DHT22;33323;52.124;6.018;2022-11-28T20:34:16;8.20;99.90
47600;DHT22;33323;52.124;6.018;2022-11-28T20:36:44;8.20;99.90
47600;DHT22;33323;52.124;6.018;2022-11-28T20:39:12;8.30;99.90
47600;DHT22;33323;52.124;6.018;2022-11-28T20:41:39;8.40;99.90
47600;DHT22;33323;52.124;6.018;2022-11-28T20:44:06;8.40;99.90
47600;DHT22;33323;52.124;6.018;2022-11-28T20:46:33;8.40;99.90
47600;DHT22;33323;52.124;6.018;2022-11-28T20:49:04;8.30;99.90
47600;DHT22;33323;52.124;6.018;2022-11-28T20:51:33;8.40;99.90
47600;DHT22;33323;52.124;6.018;2022-11-28T20:54:01;8.60;99.90
47600;DHT22;33323;52.124;6.018;2022-11-28T20:56:33;8.60;99.90
47600;DHT22;33323;52.124;6.018;2022-11-28T20:59:21;8.60;99.90
47600;DHT22;33323;52.124;6.018;2022-11-28T21:01:49;8.60;99.90
47600;DHT22;33323;52.124;6.018;2022-11-28T21:04:17;8.70;99.90
47600;DHT22;33323;52.124;6.018;2022-11-28T21:06:46;8.70;99.90
47600;DHT22;33323;52.124;6.018;2022-11-28T21:09:15;8.70;99.90
47600;DHT22;33323;52.124;6.018;2022-11-28T21:11:43;8.80;99.90
47600;DHT22;33323;52.124;6.018;2022-11-28T21:14:27;8.80;99.90
47600;DHT22;33323;52.124;6.018;2022-11-28T21:16:55;8.70;99.90
47600;DHT22;33323;52.124;6.018;2022-11-28T21:19:23;8.60;99.90
47600;DHT22;33323;52.124;6.018;2022-11-28T21:21:50;8.70;99.90
47600;DHT22;33323;52.124;6.018;2022-11-28T21:24:17;8.80;99.90
47600;DHT22;33323;52.124;6.018;2022-11-28T21:26:44;8.80;99.90
47600;DHT22;33323;52.124;6.018;2022-11-28T21:29:18;8.90;99.90
47600;DHT22;33323;52.124;6.018;2022-11-28T21:31:46;8.80;99.90
47600;DHT22;33323;52.124;6.018;2022-11-28T21:34:13;8.70;99.90
47600;DHT22;33323;52.124;6.018;2022-11-28T21:36:42;8.80;99.90
47600;DHT22;33323;52.124;6.018;2022-11-28T21:39:13;8.80;99.90
47600;DHT22;33323;52.124;6.018;2022-11-28T21:41:45;8.90;99.90
47600;DHT22;33323;52.124;6.018;2022-11-28T21:44:13;8.90;99.90
47600;DHT22;33323;52.124;6.018;2022-11-28T21:46:40;8.80;99.90
47600;DHT22;33323;52.124;6.018;2022-11-28T21:49:07;8.70;99.90
47600;DHT22;33323;52.124;6.018;2022-11-28T21:51:38;8.60;99.90
47600;DHT22;33323;52.124;6.018;2022-11-28T21:54:05;8.80;99.90
47600;DHT22;33323;52.124;6.018;2022-11-28T21:56:32;8.70;99.90
47600;DHT22;33323;52.124;6.018;2022-11-28T21:58:59;8.80;99.90
47600;DHT22;33323;52.124;6.018;2022-11-28T22:01:27;8.70;99.90
47600;DHT22;33323;52.124;6.018;2022-11-28T22:03:54;8.70;99.90
47600;DHT22;33323;52.124;6.018;2022-11-28T22:06:28;8.70;99.90
47600;DHT22;33323;52.124;6.018;2022-11-28T22:08:56;8.70;99.90
47600;DHT22;33323;52.124;6.018;2022-11-28T22:11:23;8.60;99.90
47600;DHT22;33323;52.124;6.018;2022-11-28T22:13:50;8.60;99.90
47600;DHT22;33323;52.124;6.018;2022-11-28T22:16:25;8.60;99.90
47600;DHT22;33323;52.124;6.018;2022-11-28T22:18:58;8.50;99.90
47600;DHT22;33323;52.124;6.018;2022-11-28T22:21:25;8.50;99.90
47600;DHT22;33323;52.124;6.018;2022-11-28T22:24:13;8.50;99.90
47600;DHT22;33323;52.124;6.018;2022-11-28T22:26:40;8.50;99.90
47600;DHT22;33323;52.124;6.018;2022-11-28T22:29:07;8.60;99.90
47600;DHT22;33323;52.124;6.018;2022-11-28T22:31:34;8.50;99.90
47600;DHT22;33323;52.124;6.018;2022-11-28T22:34:01;8.50;99.90
47600;DHT22;33323;52.124;6.018;2022-11-28T22:36:28;8.50;99.90
47600;DHT22;33323;52.124;6.018;2022-11-28T22:38:57;8.50;99.90
47600;DHT22;33323;52.124;6.018;2022-11-28T22:41:25;8.50;99.90
47600;DHT22;33323;52.124;6.018;2022-11-28T22:43:58;8.50;99.90
47600;DHT22;33323;52.124;6.018;2022-11-28T22:46:28;8.50;99.90
47600;DHT22;33323;52.124;6.018;2022-11-28T22:49:00;8.60;99.90
47600;DHT22;33323;52.124;6.018;2022-11-28T22:51:29;8.50;99.90
47600;DHT22;33323;52.124;6.018;2022-11-28T22:53:58;8.50;99.90
47600;DHT22;33323;52.124;6.018;2022-11-28T22:56:29;8.50;99.90
47600;DHT22;33323;52.124;6.018;2022-11-28T22:58:59;8.40;99.90
47600;DHT22;33323;52.124;6.018;2022-11-28T23:01:29;8.50;99.90
47600;DHT22;33323;52.124;6.018;2022-11-28T23:03:58;8.60;99.90
47600;DHT22;33323;52.124;6.018;2022-11-28T23:06:28;8.60;99.90
47600;DHT22;33323;52.124;6.018;2022-11-28T23:08:58;8.60;99.90
47600;DHT22;33323;52.124;6.018;2022-11-28T23:11:29;8.60;99.90
47600;DHT22;33323;52.124;6.018;2022-11-28T23:13:59;8.60;99.90
47600;DHT22;33323;52.124;6.018;2022-11-28T23:16:32;8.50;99.90
47600;DHT22;33323;52.124;6.018;2022-11-28T23:19:06;8.50;99.90
47600;DHT22;33323;52.124;6.018;2022-11-28T23:21:38;8.50;99.90
47600;DHT22;33323;52.124;6.018;2022-11-28T23:24:14;8.50;99.90
47600;DHT22;33323;52.124;6.018;2022-11-28T23:26:45;8.40;99.90
47600;DHT22;33323;52.124;6.018;2022-11-28T23:29:13;8.60;99.90
47600;DHT22;33323;52.124;6.018;2022-11-28T23:31:41;8.70;99.90
47600;DHT22;33323;52.124;6.018;2022-11-28T23:34:10;8.60;99.90
47600;DHT22;33323;52.124;6.018;2022-11-28T23:36:39;8.60;99.90
47600;DHT22;33323;52.124;6.018;2022-11-28T23:39:13;8.50;99.90
47600;DHT22;33323;52.124;6.018;2022-11-28T23:41:44;8.50;99.90
47600;DHT22;33323;52.124;6.018;2022-11-28T23:44:12;8.50;99.90
47600;DHT22;33323;52.124;6.018;2022-11-28T23:46:41;8.40;99.90
47600;DHT22;33323;52.124;6.018;2022-11-28T23:49:09;8.30;99.90
47600;DHT22;33323;52.124;6.018;2022-11-28T23:51:37;8.40;99.90
47600;DHT22;33323;52.124;6.018;2022-11-28T23:54:06;8.40;99.90
47600;DHT22;33323;52.124;6.018;2022-11-28T23:56:35;8.40;99.90
47600;DHT22;33323;52.124;6.018;2022-11-28T23:59:05;8.40;99.90
